Time;durP1;ratioP1;P1;durP2;ratioP2;P2;SDS_P1;SDS_P2;PMS_P1;PMS_P2;Temp;Humidity;BMP_temperature;BMP_pressure;BME280_temperature;BME280_humidity;BME280_pressure;Samples;Min_cycle;Max_cycle;Signal;HPM_P1;HPM_P2
2023/02/14 00:01:21;;;;;;;3.28;2.90;;;20.80;39.50;;;;;;5064282;28;20037;-57
2023/02/14 00:03:48;;;;;;;3.20;2.90;;;20.80;39.40;;;;;;5060263;28;20094;-56
2023/02/14 00:06:14;;;;;;;3.45;3.05;;;20.80;39.40;;;;;;5047625;28;20119;-56
2023/02/14 00:08:43;;;;;;;3.50;2.75;;;20.70;39.40;;;;;;5058014;28;20033;-55
2023/02/14 00:11:10;;;;;;;4.25;3.03;;;20.80;39.40;;;;;;5057714;28;20109;-55
2023/02/14 00:13:36;;;;;;;4.57;3.20;;;20.80;39.30;;;;;;5060722;28;20033;-56
2023/02/14 00:16:02;;;;;;;3.40;2.80;;;20.80;39.20;;;;;;5062964;28;20082;-56
2023/02/14 00:21:14;;;;;;;4.95;3.30;;;20.80;39.20;;;;;;5061012;28;20432;-59
2023/02/14 00:23:40;;;;;;;4.43;2.92;;;20.80;39.10;;;;;;5058246;28;20032;-56
2023/02/14 00:26:12;;;;;;;3.28;2.67;;;20.80;39.10;;;;;;5057251;28;20390;-56
2023/02/14 00:28:38;;;;;;;3.55;3.05;;;20.70;39.00;;;;;;5058859;28;20048;-57
2023/02/14 00:31:04;;;;;;;3.80;2.80;;;20.70;39.00;;;;;;5042371;28;20037;-58
2023/02/14 00:33:30;;;;;;;3.95;2.80;;;20.80;39.00;;;;;;5041568;28;20036;-58
2023/02/14 00:35:55;;;;;;;3.05;2.70;;;20.70;38.90;;;;;;5042182;28;20116;-57
2023/02/14 00:38:21;;;;;;;3.10;2.67;;;20.70;38.90;;;;;;5059108;28;20021;-56
2023/02/14 00:40:47;;;;;;;3.58;2.63;;;20.70;38.90;;;;;;5064313;28;20095;-56
2023/02/14 00:43:13;;;;;;;3.67;2.72;;;20.70;38.90;;;;;;5056852;28;20040;-55
2023/02/14 00:45:39;;;;;;;4.00;2.70;;;20.70;38.90;;;;;;5040401;28;20039;-54
2023/02/14 00:48:04;;;;;;;4.13;3.03;;;20.70;38.90;;;;;;5057583;28;20135;-55
2023/02/14 00:50:30;;;;;;;3.50;2.65;;;20.70;38.90;;;;;;5040946;28;20033;-58
2023/02/14 00:52:56;;;;;;;3.80;2.53;;;20.70;38.80;;;;;;5042805;28;20025;-58
2023/02/14 00:55:23;;;;;;;3.22;2.63;;;20.70;38.80;;;;;;5059649;28;20032;-57
2023/02/14 00:57:49;;;;;;;3.92;2.50;;;20.70;38.80;;;;;;5059481;28;20021;-57
2023/02/14 01:00:15;;;;;;;3.70;2.97;;;20.70;38.80;;;;;;5060641;28;20029;-56
2023/02/14 01:02:40;;;;;;;3.92;2.95;;;20.70;38.70;;;;;;5060298;28;20353;-58
2023/02/14 01:05:07;;;;;;;3.53;2.60;;;20.70;38.70;;;;;;5041221;28;20033;-56
2023/02/14 01:07:32;;;;;;;2.88;2.38;;;20.70;38.70;;;;;;5039730;28;20517;-58
2023/02/14 01:09:58;;;;;;;3.30;2.80;;;20.70;38.60;;;;;;5058114;28;20356;-56
2023/02/14 01:12:24;;;;;;;4.50;3.05;;;20.70;38.70;;;;;;5044976;28;20067;-54
2023/02/14 01:14:50;;;;;;;3.83;2.88;;;20.70;38.60;;;;;;5057356;28;20083;-56
2023/02/14 01:17:18;;;;;;;4.00;2.85;;;20.70;38.60;;;;;;5042588;28;20028;-58
2023/02/14 01:19:46;;;;;;;3.30;2.90;;;20.70;38.60;;;;;;5062363;28;20401;-54
2023/02/14 01:22:12;;;;;;;3.20;2.60;;;20.70;38.60;;;;;;5038050;28;20064;-56
2023/02/14 01:24:38;;;;;;;3.33;2.60;;;20.60;38.50;;;;;;5057493;28;20021;-55
2023/02/14 01:27:03;;;;;;;3.83;2.97;;;20.60;38.40;;;;;;5056645;28;20043;-56
2023/02/14 01:29:31;;;;;;;3.00;2.47;;;20.60;38.40;;;;;;5043837;28;20052;-56
2023/02/14 01:31:57;;;;;;;3.50;2.55;;;20.60;38.40;;;;;;5062352;28;20028;-53
2023/02/14 01:34:24;;;;;;;3.53;2.88;;;20.60;38.30;;;;;;5067026;28;20028;-55
2023/02/14 01:36:49;;;;;;;3.15;2.70;;;20.60;38.30;;;;;;5058585;28;20025;-55
2023/02/14 01:39:17;;;;;;;3.17;2.65;;;20.60;38.30;;;;;;5062504;28;20048;-55
2023/02/14 01:41:49;;;;;;;4.00;3.08;;;20.60;38.30;;;;;;5042198;28;20033;-55
2023/02/14 01:44:18;;;;;;;2.40;2.20;;;20.60;38.30;;;;;;5041699;28;20039;-54
2023/02/14 01:46:45;;;;;;;3.17;2.85;;;20.60;38.20;;;;;;5062218;28;20044;-55
2023/02/14 01:49:46;;;;;;;4.07;2.65;;;20.60;38.20;;;;;;5039483;28;20041;-56
2023/02/14 01:52:18;;;;;;;4.90;2.90;;;20.60;38.10;;;;;;5038074;28;20037;-55
2023/02/14 01:54:52;;;;;;;3.28;2.50;;;20.60;38.10;;;;;;5041365;28;20033;-55
2023/02/14 01:57:21;;;;;;;3.45;2.45;;;20.60;38.10;;;;;;5062609;28;20040;-58
2023/02/14 01:59:52;;;;;;;3.35;2.63;;;20.60;38.10;;;;;;5042052;28;20021;-54
2023/02/14 02:02:22;;;;;;;2.95;2.47;;;20.50;38.00;;;;;;5038664;28;20020;-57
2023/02/14 02:04:52;;;;;;;3.95;2.33;;;20.50;38.00;;;;;;5041145;28;20036;-56
2023/02/14 02:07:22;;;;;;;3.85;2.80;;;20.50;38.00;;;;;;5059970;28;20033;-55
2023/02/14 02:09:54;;;;;;;3.22;2.85;;;20.50;38.00;;;;;;5040617;28;20033;-57
2023/02/14 02:12:22;;;;;;;3.47;2.63;;;20.50;38.00;;;;;;5055639;28;20040;-57
2023/02/14 02:14:51;;;;;;;3.00;2.58;;;20.50;38.00;;;;;;5038200;28;20052;-56
2023/02/14 02:17:26;;;;;;;3.45;2.63;;;20.50;38.00;;;;;;5057666;28;20032;-56
2023/02/14 02:20:19;;;;;;;3.35;2.50;;;20.50;37.90;;;;;;5060637;28;20451;-56
2023/02/14 02:23:22;;;;;;;3.50;2.67;;;20.50;38.00;;;;;;5060674;28;20036;-57
2023/02/14 02:25:54;;;;;;;3.28;2.40;;;20.50;38.00;;;;;;5041569;28;20024;-56
2023/02/14 02:28:41;;;;;;;3.60;2.55;;;20.50;38.00;;;;;;5060790;28;20123;-55
2023/02/14 02:31:38;;;;;;;3.17;2.42;;;20.50;38.00;;;;;;5053889;28;20018;-54
2023/02/14 02:34:32;;;;;;;3.28;2.75;;;20.50;38.00;;;;;;5057341;28;20036;-54
2023/02/14 02:37:24;;;;;;;3.58;2.70;;;20.50;38.00;;;;;;5041269;28;20082;-54
2023/02/14 02:40:27;;;;;;;3.47;2.80;;;20.50;37.90;;;;;;5039147;28;20108;-56
2023/02/14 02:43:16;;;;;;;3.70;2.70;;;20.50;37.90;;;;;;5046036;28;20033;-55
2023/02/14 02:49:07;;;;;;;4.57;2.50;;;20.50;37.80;;;;;;5059935;28;20037;-56
2023/02/14 02:54:36;;;;;;;3.47;2.60;;;20.40;37.70;;;;;;5042505;28;20032;-55
2023/02/14 02:57:06;;;;;;;3.45;2.35;;;20.40;37.70;;;;;;5040933;28;20025;-56
2023/02/14 02:59:36;;;;;;;3.38;2.80;;;20.40;37.70;;;;;;5038764;28;20029;-56
2023/02/14 03:02:20;;;;;;;3.60;2.80;;;20.40;37.70;;;;;;5037981;28;20035;-54
2023/02/14 03:04:53;;;;;;;3.72;2.17;;;20.40;37.70;;;;;;5040370;28;20032;-55
2023/02/14 03:07:39;;;;;;;4.57;2.40;;;20.40;37.70;;;;;;5038676;28;20032;-56
2023/02/14 03:10:25;;;;;;;3.17;2.25;;;20.40;37.70;;;;;;5034940;28;20087;-57
2023/02/14 03:13:14;;;;;;;3.30;2.72;;;20.40;37.60;;;;;;5044712;28;20035;-57
2023/02/14 03:15:51;;;;;;;2.97;2.58;;;20.40;37.60;;;;;;5040219;28;20052;-56
2023/02/14 03:21:32;;;;;;;4.07;2.38;;;20.40;37.60;;;;;;5040049;28;20052;-51
2023/02/14 03:24:28;;;;;;;2.78;2.22;;;20.40;37.60;;;;;;5057592;28;20399;-55
2023/02/14 03:27:23;;;;;;;3.30;2.58;;;20.40;37.70;;;;;;5043915;28;20055;-56
2023/02/14 03:30:13;;;;;;;2.60;2.10;;;20.40;37.70;;;;;;5045515;28;20094;-53
2023/02/14 03:32:48;;;;;;;3.65;2.40;;;20.40;37.70;;;;;;5041959;28;20024;-55
2023/02/14 03:35:29;;;;;;;3.88;2.40;;;20.40;37.60;;;;;;5046510;28;20024;-53
2023/02/14 03:38:05;;;;;;;3.88;2.70;;;20.40;37.60;;;;;;5041429;28;20104;-55
2023/02/14 03:41:13;;;;;;;2.42;2.10;;;20.30;37.50;;;;;;5063508;28;20352;-55
2023/02/14 03:43:44;;;;;;;4.07;2.75;;;20.30;37.50;;;;;;4964264;28;20368;-56
2023/02/14 03:46:15;;;;;;;3.72;2.30;;;20.40;37.50;;;;;;4957561;28;20094;-52
2023/02/14 03:48:43;;;;;;;2.88;2.28;;;20.40;37.50;;;;;;5016197;28;20053;-56
2023/02/14 03:51:11;;;;;;;3.53;2.63;;;20.30;37.50;;;;;;5064277;28;20119;-56
2023/02/14 03:53:41;;;;;;;3.17;2.30;;;20.30;37.40;;;;;;5062662;28;20028;-55
2023/02/14 03:56:36;;;;;;;2.88;2.33;;;20.30;37.40;;;;;;5062677;28;20033;-55
2023/02/14 03:59:17;;;;;;;2.90;2.50;;;20.30;37.40;;;;;;5063470;28;20034;-56
2023/02/14 04:01:58;;;;;;;3.13;2.40;;;20.30;37.30;;;;;;5042738;28;20056;-56
2023/02/14 04:04:27;;;;;;;2.75;2.25;;;20.30;37.30;;;;;;5058569;28;20029;-56
2023/02/14 04:06:53;;;;;;;2.88;2.60;;;20.30;37.30;;;;;;5063519;28;20047;-56
2023/02/14 04:09:19;;;;;;;2.60;2.13;;;20.30;37.30;;;;;;5061784;28;20354;-57
2023/02/14 04:11:49;;;;;;;2.67;2.30;;;20.30;37.30;;;;;;5060213;28;20020;-53
2023/02/14 04:14:16;;;;;;;2.45;2.25;;;20.30;37.30;;;;;;5063267;28;20024;-58
2023/02/14 04:19:26;;;;;;;;;;;20.30;37.30;;;;;;5055922;28;20029;-56
2023/02/14 04:21:52;;;;;;;2.72;2.22;;;20.30;37.30;;;;;;5060836;28;20232;-56
2023/02/14 04:24:19;;;;;;;3.00;2.65;;;20.30;37.30;;;;;;5062329;28;20028;-55
2023/02/14 04:27:08;;;;;;;3.65;2.55;;;20.30;37.30;;;;;;5059045;28;20040;-58
2023/02/14 04:29:55;;;;;;;2.50;2.05;;;20.20;37.20;;;;;;5063376;28;20113;-54
2023/02/14 04:32:21;;;;;;;3.05;2.60;;;20.30;37.20;;;;;;5056948;28;20021;-57
2023/02/14 04:34:47;;;;;;;3.08;2.33;;;20.20;37.20;;;;;;5044186;28;20029;-57
2023/02/14 04:37:15;;;;;;;3.20;2.50;;;20.20;37.20;;;;;;5059134;28;20360;-56
2023/02/14 04:39:41;;;;;;;3.65;2.70;;;20.20;37.20;;;;;;5061864;28;20033;-56
2023/02/14 04:42:07;;;;;;;3.35;2.50;;;20.20;37.20;;;;;;5062189;28;20043;-57
2023/02/14 04:44:33;;;;;;;2.90;2.60;;;20.20;37.20;;;;;;5061441;28;20036;-55
2023/02/14 04:47:00;;;;;;;2.88;2.40;;;20.20;37.20;;;;;;5059424;28;20037;-55
2023/02/14 04:49:26;;;;;;;3.03;2.38;;;20.20;37.20;;;;;;5062817;28;20041;-56
2023/02/14 04:51:51;;;;;;;3.15;2.70;;;20.20;37.10;;;;;;5063757;28;20380;-56
2023/02/14 04:54:17;;;;;;;2.60;2.28;;;20.20;37.10;;;;;;5062706;28;20029;-56
2023/02/14 04:56:43;;;;;;;2.60;2.40;;;20.20;37.10;;;;;;5058319;28;20040;-56
2023/02/14 04:59:09;;;;;;;2.97;2.45;;;20.20;37.10;;;;;;5062301;28;20100;-57
2023/02/14 05:01:35;;;;;;;2.38;2.13;;;20.20;37.10;;;;;;5062034;28;20020;-56
2023/02/14 05:04:01;;;;;;;2.88;2.10;;;20.20;37.10;;;;;;5062273;28;20441;-57
2023/02/14 05:06:27;;;;;;;3.78;2.28;;;20.20;37.10;;;;;;5045083;28;20119;-56
2023/02/14 05:08:55;;;;;;;3.33;2.28;;;20.20;37.10;;;;;;5058977;28;20044;-56
2023/02/14 05:11:21;;;;;;;4.13;2.58;;;20.20;37.00;;;;;;5059451;28;20044;-56
2023/02/14 05:13:47;;;;;;;3.13;2.03;;;20.20;37.00;;;;;;5062475;28;20354;-56
2023/02/14 05:16:13;;;;;;;2.92;2.60;;;20.20;37.00;;;;;;5062854;28;20051;-57
2023/02/14 05:18:39;;;;;;;4.15;2.60;;;20.20;37.00;;;;;;5062309;28;20048;-55
2023/02/14 05:21:05;;;;;;;2.25;1.85;;;20.20;37.00;;;;;;5062663;28;20033;-56
2023/02/14 05:23:31;;;;;;;3.67;2.75;;;20.20;37.00;;;;;;5061362;28;20041;-56
2023/02/14 05:25:57;;;;;;;3.88;2.60;;;20.20;37.00;;;;;;5059260;28;20388;-56
2023/02/14 05:28:22;;;;;;;5.28;2.67;;;20.20;37.00;;;;;;5059921;28;20047;-58
2023/02/14 05:30:50;;;;;;;2.58;2.20;;;20.20;37.00;;;;;;5059980;28;20073;-56
2023/02/14 05:33:16;;;;;;;3.70;2.45;;;20.20;36.90;;;;;;5057457;28;20028;-58
2023/02/14 05:35:42;;;;;;;3.03;2.28;;;20.20;36.90;;;;;;5060112;28;20040;-55
2023/02/14 05:38:07;;;;;;;2.33;1.92;;;20.20;36.90;;;;;;5063426;28;20021;-54
2023/02/14 05:40:33;;;;;;;3.05;2.20;;;20.10;36.80;;;;;;5061271;28;20460;-59
2023/02/14 05:42:59;;;;;;;4.93;2.20;;;20.10;36.80;;;;;;5057196;28;20044;-57
2023/02/14 05:45:25;;;;;;;2.20;2.00;;;20.20;36.80;;;;;;5043796;28;20036;-55
2023/02/14 05:47:51;;;;;;;2.78;2.25;;;20.10;36.80;;;;;;5054529;28;20444;-56
2023/02/14 05:50:17;;;;;;;3.08;2.20;;;20.10;36.80;;;;;;5059622;28;20025;-56
2023/02/14 05:52:43;;;;;;;3.65;2.20;;;20.10;36.80;;;;;;5058804;28;20025;-56
2023/02/14 05:55:10;;;;;;;2.92;1.98;;;20.10;36.80;;;;;;5059223;28;20376;-55
2023/02/14 05:57:36;;;;;;;2.72;2.38;;;20.10;36.80;;;;;;5061811;28;20036;-56
2023/02/14 06:00:05;;;;;;;2.55;2.05;;;20.10;36.80;;;;;;5056001;28;20032;-56
2023/02/14 06:02:37;;;;;;;4.68;2.65;;;20.10;36.80;;;;;;5060304;28;20089;-56
2023/02/14 06:05:04;;;;;;;2.92;2.10;;;20.10;36.70;;;;;;5062916;28;20032;-56
2023/02/14 06:07:29;;;;;;;3.22;2.30;;;20.10;36.70;;;;;;5060013;28;20021;-57
2023/02/14 06:09:55;;;;;;;4.00;2.85;;;20.10;36.70;;;;;;5041336;28;20044;-54
2023/02/14 06:12:21;;;;;;;3.35;2.30;;;20.10;36.70;;;;;;5056229;28;20038;-55
2023/02/14 06:14:47;;;;;;;3.53;2.45;;;20.10;37.30;;;;;;5056679;28;20135;-57
2023/02/14 06:17:13;;;;;;;2.90;2.38;;;20.10;36.60;;;;;;5058531;28;20117;-55
2023/02/14 06:19:39;;;;;;;2.75;2.45;;;20.10;36.60;;;;;;5063949;28;20043;-56
2023/02/14 06:22:05;;;;;;;3.63;2.22;;;20.10;36.60;;;;;;5062028;28;20032;-57
2023/02/14 06:24:30;;;;;;;3.47;2.55;;;20.10;36.50;;;;;;5059991;28;20025;-55
2023/02/14 06:26:58;;;;;;;3.95;2.47;;;20.10;36.50;;;;;;5059863;28;20021;-56
2023/02/14 06:29:24;;;;;;;3.72;2.80;;;20.10;36.50;;;;;;5062065;28;20048;-56
2023/02/14 06:31:49;;;;;;;3.00;2.35;;;20.10;36.50;;;;;;5059959;28;20082;-56
2023/02/14 06:34:15;;;;;;;4.28;2.97;;;20.10;36.50;;;;;;5062540;28;20052;-56
2023/02/14 06:36:41;;;;;;;5.22;2.80;;;20.10;36.50;;;;;;5058798;28;20036;-56
2023/02/14 06:39:07;;;;;;;4.28;2.83;;;20.00;36.40;;;;;;5059859;28;20037;-55
2023/02/14 06:41:33;;;;;;;3.75;2.47;;;20.00;36.40;;;;;;5061447;28;20111;-57
2023/02/14 06:43:58;;;;;;;4.75;2.95;;;20.00;36.30;;;;;;5060179;28;20097;-56
2023/02/14 06:46:24;;;;;;;4.05;2.70;;;20.00;36.30;;;;;;5056390;28;20036;-56
2023/02/14 06:48:50;;;;;;;3.03;2.50;;;20.00;36.30;;;;;;5054984;28;20048;-57
2023/02/14 06:51:16;;;;;;;3.35;2.60;;;20.00;36.20;;;;;;5061236;28;20024;-57
2023/02/14 06:53:42;;;;;;;2.60;2.17;;;20.00;36.30;;;;;;5057403;28;20029;-57
2023/02/14 06:56:08;;;;;;;3.22;2.60;;;20.00;36.20;;;;;;5060360;28;20440;-57
2023/02/14 06:58:34;;;;;;;2.88;2.05;;;20.00;36.20;;;;;;5057352;28;20025;-58
2023/02/14 07:01:00;;;;;;;4.82;2.45;;;20.00;36.20;;;;;;5054603;28;20418;-58
2023/02/14 07:03:26;;;;;;;2.72;2.28;;;20.00;36.20;;;;;;5059260;28;20028;-58
2023/02/14 07:05:52;;;;;;;3.05;2.33;;;20.00;36.40;;;;;;5057971;28;20333;-58
2023/02/14 07:08:19;;;;;;;3.80;2.22;;;20.00;36.30;;;;;;5061476;28;20040;-58
2023/02/14 07:10:45;;;;;;;4.43;2.42;;;20.00;36.20;;;;;;5059204;28;20033;-57
2023/02/14 07:13:11;;;;;;;3.78;2.42;;;20.00;36.20;;;;;;5063875;28;20060;-57
2023/02/14 07:15:37;;;;;;;3.60;2.50;;;20.00;36.20;;;;;;5061825;28;20483;-55
2023/02/14 07:18:03;;;;;;;2.95;2.60;;;20.00;36.20;;;;;;5060938;28;20368;-58
2023/02/14 07:20:29;;;;;;;3.08;2.45;;;20.00;36.10;;;;;;5064072;28;20445;-55
2023/02/14 07:22:55;;;;;;;2.75;2.30;;;20.00;36.20;;;;;;5062288;28;20036;-57
2023/02/14 07:25:21;;;;;;;3.53;2.60;;;20.00;36.20;;;;;;5055647;28;20063;-57
2023/02/14 07:27:47;;;;;;;3.10;2.45;;;20.00;36.10;;;;;;5061446;28;20025;-58
2023/02/14 07:30:13;;;;;;;3.83;2.75;;;20.00;36.10;;;;;;5058056;28;20062;-58
2023/02/14 07:32:40;;;;;;;3.75;2.65;;;20.00;36.10;;;;;;5047793;28;20662;-56
2023/02/14 07:35:06;;;;;;;5.85;3.10;;;20.00;36.10;;;;;;5060222;28;20025;-55
2023/02/14 07:37:33;;;;;;;5.40;3.03;;;20.00;36.10;;;;;;5056888;28;20016;-54
2023/02/14 07:40:01;;;;;;;4.07;3.00;;;20.00;36.00;;;;;;5056773;28;20104;-56
2023/02/14 07:42:27;;;;;;;4.25;2.75;;;20.00;36.00;;;;;;5053308;28;20025;-56
2023/02/14 07:44:53;;;;;;;5.68;3.35;;;20.00;36.00;;;;;;5056654;28;20048;-56
2023/02/14 07:47:19;;;;;;;5.75;3.35;;;20.00;35.90;;;;;;5060959;28;20443;-57
2023/02/14 07:49:45;;;;;;;5.40;3.25;;;19.90;35.90;;;;;;5060941;28;20045;-57
2023/02/14 07:52:11;;;;;;;5.55;3.25;;;20.00;35.90;;;;;;5055395;28;20028;-56
2023/02/14 07:54:37;;;;;;;4.38;3.15;;;20.00;36.00;;;;;;5056598;28;20036;-57
2023/02/14 07:57:04;;;;;;;3.83;2.80;;;19.90;36.00;;;;;;5058250;28;20025;-57
2023/02/14 07:59:30;;;;;;;4.78;3.58;;;19.90;36.60;;;;;;5042720;28;20044;-55
2023/02/14 08:01:56;;;;;;;5.00;3.38;;;20.00;36.00;;;;;;5056909;28;20036;-57
2023/02/14 08:04:25;;;;;;;5.07;3.30;;;20.00;35.90;;;;;;5063173;28;20033;-56
2023/02/14 08:06:52;;;;;;;4.43;3.35;;;20.00;35.90;;;;;;5056046;28;20333;-57
2023/02/14 08:09:25;;;;;;;5.97;3.92;;;20.10;35.90;;;;;;5056200;28;20731;-55
2023/02/14 08:14:37;;;;;;;6.80;4.60;;;20.10;35.80;;;;;;5065509;28;20360;-56
2023/02/14 08:17:04;;;;;;;7.10;3.90;;;20.10;35.70;;;;;;5060375;28;20044;-54
2023/02/14 08:19:29;;;;;;;4.95;4.18;;;20.20;35.70;;;;;;5065599;28;20517;-58
2023/02/14 08:21:55;;;;;;;6.10;4.18;;;20.20;35.70;;;;;;5063106;28;20100;-57
2023/02/14 08:24:21;;;;;;;6.47;4.60;;;20.20;35.70;;;;;;5058871;28;20032;-57
2023/02/14 08:26:47;;;;;;;5.35;4.68;;;20.30;35.70;;;;;;5055244;28;20025;-55
2023/02/14 08:29:13;;;;;;;8.65;5.03;;;20.30;35.70;;;;;;5056975;28;20048;-58
2023/02/14 08:31:38;;;;;;;7.95;5.35;;;20.40;35.70;;;;;;5056577;28;20032;-55
2023/02/14 08:34:05;;;;;;;10.82;5.35;;;20.40;35.70;;;;;;5055858;28;20361;-56
2023/02/14 08:36:31;;;;;;;8.48;5.85;;;20.40;35.60;;;;;;5059414;28;20063;-57
2023/02/14 08:38:57;;;;;;;8.00;5.32;;;20.40;35.60;;;;;;5062769;28;20102;-56
2023/02/14 08:41:23;;;;;;;7.82;5.75;;;20.50;35.70;;;;;;5057868;28;20059;-59
2023/02/14 08:43:49;;;;;;;8.25;6.13;;;20.50;35.60;;;;;;5059710;28;20029;-53
2023/02/14 08:46:15;;;;;;;8.45;6.13;;;20.50;35.80;;;;;;5054873;28;20032;-53
2023/02/14 08:48:48;;;;;;;8.10;6.40;;;20.60;35.90;;;;;;5053755;28;20116;-55
2023/02/14 08:51:15;;;;;;;8.10;6.85;;;20.60;35.80;;;;;;5055750;28;20031;-55
2023/02/14 08:53:42;;;;;;;10.40;7.13;;;20.60;35.80;;;;;;5053161;28;20449;-55
2023/02/14 08:56:11;;;;;;;10.10;7.97;;;20.70;35.90;;;;;;5055394;28;20112;-52
2023/02/14 08:58:38;;;;;;;10.35;7.80;;;20.70;35.90;;;;;;5057216;28;20044;-58
2023/02/14 09:01:15;;;;;;;10.23;7.65;;;20.70;36.00;;;;;;5073061;28;20029;-55
2023/02/14 09:03:41;;;;;;;11.50;8.07;;;20.70;35.90;;;;;;5063034;28;20021;-54
2023/02/14 09:06:10;;;;;;;11.65;6.95;;;20.80;35.90;;;;;;5064512;28;20025;-57
2023/02/14 09:08:38;;;;;;;11.45;7.40;;;20.80;35.80;;;;;;5055951;28;20116;-53
2023/02/14 09:11:19;;;;;;;10.43;7.40;;;20.80;36.00;;;;;;5059426;28;20457;-55
2023/02/14 09:13:46;;;;;;;8.85;7.07;;;20.70;36.10;;;;;;5060250;28;20036;-55
2023/02/14 09:16:17;;;;;;;12.13;6.78;;;20.80;36.30;;;;;;5061086;28;20136;-57
2023/02/14 09:18:45;;;;;;;8.85;7.20;;;20.80;36.30;;;;;;5055552;28;20025;-52
2023/02/14 09:21:14;;;;;;;7.97;6.97;;;20.90;36.30;;;;;;5055569;28;20017;-55
2023/02/14 09:23:41;;;;;;;9.98;7.65;;;21.00;36.30;;;;;;5057697;28;20036;-57
2023/02/14 09:26:11;;;;;;;10.07;7.63;;;21.10;36.90;;;;;;5069145;28;20035;-57
2023/02/14 09:28:37;;;;;;;11.63;8.38;;;21.20;36.20;;;;;;5056856;28;20050;-58
2023/02/14 09:31:15;;;;;;;11.90;9.02;;;21.30;36.10;;;;;;5053497;28;20399;-56
2023/02/14 09:36:27;;;;;;;10.63;8.82;;;21.50;36.00;;;;;;5061203;28;20114;-56
2023/02/14 09:38:53;;;;;;;10.55;8.65;;;21.60;35.80;;;;;;5068308;28;20452;-57
2023/02/14 09:41:58;;;;;;;11.05;8.25;;;21.80;35.70;;;;;;5075170;28;20037;-57
2023/02/14 09:44:38;;;;;;;10.05;8.27;;;21.80;35.40;;;;;;5023510;28;20523;-56
2023/02/14 09:47:18;;;;;;;9.90;7.90;;;21.80;35.10;;;;;;5058121;28;20444;-56
2023/02/14 09:49:45;;;;;;;9.55;7.95;;;21.90;35.00;;;;;;5075128;28;20040;-57
2023/02/14 09:52:14;;;;;;;10.68;8.00;;;21.80;34.90;;;;;;5074712;28;20032;-57
2023/02/14 09:54:45;;;;;;;11.43;8.90;;;21.80;34.90;;;;;;5060640;28;20047;-57
2023/02/14 09:57:26;;;;;;;10.45;8.05;;;21.80;34.90;;;;;;5055539;28;20491;-57
2023/02/14 09:59:55;;;;;;;11.45;8.50;;;21.80;34.80;;;;;;5054645;28;20033;-56
2023/02/14 10:02:59;;;;;;;11.75;8.15;;;21.80;34.90;;;;;;5057430;28;20060;-56
2023/02/14 10:05:34;;;;;;;9.65;7.85;;;21.70;34.90;;;;;;4999369;28;20114;-58
2023/02/14 10:08:15;;;;;;;9.00;7.32;;;21.70;35.00;;;;;;5055049;28;20036;-57
2023/02/14 10:10:43;;;;;;;9.73;7.90;;;21.70;35.00;;;;;;5054621;28;20448;-56
2023/02/14 10:13:28;;;;;;;10.68;7.50;;;21.60;35.00;;;;;;5054884;28;20036;-56
2023/02/14 10:16:12;;;;;;;10.43;7.43;;;21.60;35.00;;;;;;5065965;28;20106;-58
2023/02/14 10:19:00;;;;;;;11.45;7.22;;;21.60;35.00;;;;;;5074814;28;20029;-57
2023/02/14 10:21:46;;;;;;;7.90;6.57;;;21.50;35.60;;;;;;5068481;28;20025;-57
2023/02/14 10:24:21;;;;;;;8.18;7.15;;;21.50;35.00;;;;;;5074569;28;20036;-57
2023/02/14 10:26:48;;;;;;;9.23;7.07;;;21.40;35.00;;;;;;5071824;28;20090;-57
2023/02/14 10:29:19;;;;;;;9.77;6.78;;;21.40;35.00;;;;;;5059521;28;20060;-57
2023/02/14 10:31:56;;;;;;;9.60;7.30;;;21.40;35.10;;;;;;5075080;28;20475;-57
2023/02/14 10:34:46;;;;;;;10.10;7.32;;;21.40;35.70;;;;;;5056697;28;20039;-57
2023/02/14 10:37:12;;;;;;;9.13;7.45;;;21.40;35.20;;;;;;5055902;28;20021;-58
2023/02/14 10:39:53;;;;;;;9.55;7.53;;;21.40;35.30;;;;;;5056680;28;20029;-58
2023/02/14 10:42:38;;;;;;;10.30;7.57;;;21.30;35.20;;;;;;5058651;28;20070;-57
2023/02/14 10:45:17;;;;;;;10.45;7.40;;;21.30;35.30;;;;;;5067630;28;20032;-59
2023/02/14 10:47:51;;;;;;;9.10;7.57;;;21.30;35.40;;;;;;5078313;28;20090;-57
2023/02/14 10:50:37;;;;;;;;;;;21.30;35.40;;;;;;5078911;28;20040;-58
2023/02/14 10:53:17;;;;;;;8.73;7.15;;;21.30;35.50;;;;;;5072337;28;19913;-57
2023/02/14 10:55:53;;;;;;;10.70;7.72;;;21.20;35.40;;;;;;5057258;28;20041;-57
2023/02/14 10:58:23;;;;;;;9.75;7.13;;;21.20;35.50;;;;;;5058455;28;20044;-57
2023/02/14 11:01:00;;;;;;;8.90;6.95;;;21.20;35.50;;;;;;5060528;28;20425;-57
2023/02/14 11:03:27;;;;;;;9.90;7.60;;;21.20;35.60;;;;;;5077066;28;20028;-58
2023/02/14 11:05:53;;;;;;;9.50;7.70;;;21.20;35.60;;;;;;5074108;28;20064;-58
2023/02/14 11:08:38;;;;;;;19.90;14.70;;;21.20;35.80;;;;;;5063767;28;20069;-56
2023/02/14 11:11:26;;;;;;;29.95;24.38;;;21.20;36.70;;;;;;5067999;28;20029;-56
2023/02/14 11:13:52;;;;;;;31.75;26.30;;;21.20;37.80;;;;;;5059066;28;20037;-58
2023/02/14 11:16:30;;;;;;;33.00;26.35;;;21.20;38.30;;;;;;5067613;28;20123;-56
2023/02/14 11:19:30;;;;;;;32.33;27.05;;;21.20;38.70;;;;;;5057613;28;20047;-58
2023/02/14 11:21:58;;;;;;;34.60;27.98;;;21.20;39.00;;;;;;5034102;28;20049;-58
2023/02/14 11:24:40;;;;;;;34.90;27.52;;;21.20;39.30;;;;;;5061131;28;20029;-56
2023/02/14 11:27:12;;;;;;;37.95;27.58;;;21.20;39.40;;;;;;5071441;28;20036;-56
2023/02/14 11:29:40;;;;;;;33.05;26.92;;;21.30;39.70;;;;;;5075835;28;20136;-56
2023/02/14 11:32:19;;;;;;;34.25;26.30;;;21.30;39.80;;;;;;5060794;28;20040;-58
2023/02/14 11:34:56;;;;;;;33.28;26.73;;;21.30;39.90;;;;;;5056947;28;20113;-56
2023/02/14 11:37:22;;;;;;;37.15;27.58;;;21.30;40.00;;;;;;5058877;28;20033;-57
2023/02/14 11:39:48;;;;;;;33.67;26.98;;;21.40;40.10;;;;;;5047520;28;20042;-58
2023/02/14 11:42:40;;;;;;;33.25;25.83;;;21.40;40.00;;;;;;5061123;28;20393;-54
2023/02/14 11:45:24;;;;;;;35.20;25.08;;;21.50;39.90;;;;;;5058437;28;20484;-59
2023/02/14 11:48:08;;;;;;;29.20;22.48;;;21.60;39.80;;;;;;5039858;28;20048;-57
2023/02/14 11:50:37;;;;;;;22.10;19.08;;;21.70;39.70;;;;;;5056348;28;20039;-58
2023/02/14 11:53:09;;;;;;;27.42;20.58;;;21.80;39.50;;;;;;5058675;28;20396;-56
2023/02/14 11:55:36;;;;;;;26.58;21.48;;;21.90;39.30;;;;;;5075310;28;20078;-54
2023/02/14 11:58:04;;;;;;;31.40;23.05;;;22.00;39.20;;;;;;5062964;28;20036;-56
2023/02/14 12:00:31;;;;;;;28.60;22.13;;;22.10;39.00;;;;;;5058071;28;20527;-60
2023/02/14 12:03:00;;;;;;;28.50;20.17;;;22.30;39.00;;;;;;5063804;28;20033;-58
2023/02/14 12:05:59;;;;;;;25.17;18.73;;;22.30;38.70;;;;;;5062912;28;20067;-57
2023/02/14 12:08:29;;;;;;;22.40;19.23;;;22.40;38.50;;;;;;5042281;28;20045;-59
2023/02/14 12:11:18;;;;;;;21.85;17.83;;;22.50;38.40;;;;;;5064383;28;20064;-59
2023/02/14 12:13:55;;;;;;;22.55;17.52;;;22.50;38.30;;;;;;5062706;28;20032;-56
2023/02/14 12:16:31;;;;;;;22.52;17.75;;;22.60;38.20;;;;;;5062589;28;20441;-54
2023/02/14 12:19:00;;;;;;;22.13;17.52;;;22.70;38.10;;;;;;5056464;28;20032;-56
2023/02/14 12:21:26;;;;;;;23.80;18.05;;;22.70;38.00;;;;;;5045097;28;20028;-56
2023/02/14 12:24:20;;;;;;;22.35;17.38;;;22.80;37.90;;;;;;5064716;28;20444;-56
2023/02/14 12:26:52;;;;;;;22.63;15.85;;;22.80;37.70;;;;;;5066491;28;20052;-59
2023/02/14 12:29:41;;;;;;;19.65;13.98;;;22.90;37.60;;;;;;5061401;28;20040;-58
2023/02/14 12:32:21;;;;;;;16.42;13.43;;;22.90;37.40;;;;;;5041428;28;20878;-59
2023/02/14 12:34:48;;;;;;;21.75;13.05;;;23.00;37.20;;;;;;5062434;28;20032;-59
2023/02/14 12:37:22;;;;;;;19.25;13.45;;;23.00;37.10;;;;;;5063969;28;20040;-58
2023/02/14 12:40:08;;;;;;;20.23;13.70;;;23.00;37.00;;;;;;5062578;28;20078;-55
2023/02/14 12:42:45;;;;;;;16.25;13.38;;;23.00;37.00;;;;;;5060483;28;20126;-57
2023/02/14 12:45:36;;;;;;;17.85;14.25;;;23.10;37.10;;;;;;5041947;28;20065;-58
2023/02/14 12:48:20;;;;;;;15.13;13.18;;;23.10;37.20;;;;;;5039977;28;20992;-58
2023/02/14 12:50:52;;;;;;;17.35;13.23;;;23.20;37.40;;;;;;5050356;28;20087;-58
2023/02/14 12:53:47;;;;;;;19.27;13.40;;;23.20;38.10;;;;;;5067197;28;20402;-57
2023/02/14 12:56:26;;;;;;;16.52;13.25;;;23.10;37.50;;;;;;4991469;28;20042;-57
2023/02/14 12:58:57;;;;;;;16.08;13.15;;;23.20;37.70;;;;;;5062896;28;20085;-57
2023/02/14 13:01:50;;;;;;;21.65;14.23;;;23.20;37.90;;;;;;5059718;28;20060;-54
2023/02/14 13:04:54;;;;;;;18.13;13.65;;;23.20;38.00;;;;;;5063355;28;20094;-58
2023/02/14 13:07:45;;;;;;;19.10;14.82;;;23.20;38.10;;;;;;5062524;28;20452;-58
2023/02/14 13:10:20;;;;;;;19.27;14.73;;;23.20;38.10;;;;;;5062232;28;20047;-56
2023/02/14 13:13:04;;;;;;;18.98;14.95;;;23.20;38.20;;;;;;5060099;28;20032;-58
2023/02/14 13:15:41;;;;;;;18.48;14.95;;;23.20;38.20;;;;;;5058132;28;20080;-57
2023/02/14 13:18:33;;;;;;;19.40;14.50;;;23.20;38.20;;;;;;5055668;28;20072;-58
2023/02/14 13:21:01;;;;;;;20.38;15.50;;;23.20;38.10;;;;;;5055624;28;20029;-55
2023/02/14 13:23:46;;;;;;;20.98;15.77;;;23.20;38.10;;;;;;5055282;28;20029;-58
2023/02/14 13:26:19;;;;;;;23.25;15.13;;;23.20;38.10;;;;;;5055465;28;20063;-58
2023/02/14 13:28:51;;;;;;;17.88;14.93;;;23.30;38.10;;;;;;5054494;28;20048;-58